Time,TemperatureF,DewpointF,PressureIn,WindDirection,WindDirectionDegrees,WindSpeedMPH,WindSpeedGustMPH,Humidity,HourlyPrecipIn,Conditions,Clouds,dailyrainin,SolarRadiationWatts/m^2,SoftwareType,DateUTC
2013-01-16 00:02:00,27.0,23.0,-100.00,NNE,12,8.0,13.0,86,0.00,,,0.00,0.000000,,2013-01-16 08:02:00,
2013-01-16 00:12:00,27.0,23.0,-100.00,NNE,12,8.0,13.0,86,0.00,,,0.00,0.000000,,2013-01-16 08:12:00,
2013-01-16 00:22:00,27.0,23.0,-100.00,NNE,12,8.0,13.0,86,0.00,,,0.00,0.000000,,2013-01-16 08:22:00,
2013-01-16 00:32:00,27.0,23.0,-100.00,NNE,12,8.0,13.0,86,0.00,,,0.00,0.000000,,2013-01-16 08:32:00,
2013-01-16 01:02:00,27.0,23.0,-100.00,NNE,14,8.0,12.0,86,0.00,,,0.00,0.000000,,2013-01-16 09:02:00,
2013-01-16 01:11:00,27.0,23.0,-100.00,NNE,14,8.0,12.0,86,0.00,,,0.00,0.000000,,2013-01-16 09:11:00,
2013-01-16 01:22:00,27.0,23.0,-100.00,NNE,14,8.0,12.0,86,0.00,,,0.00,0.000000,,2013-01-16 09:22:00,
2013-01-16 01:32:00,27.0,23.0,-100.00,NNE,14,8.0,12.0,86,0.00,,,0.00,0.000000,,2013-01-16 09:32:00,
2013-01-16 02:02:00,27.0,23.0,-100.00,North,8,7.0,12.0,85,0.00,,,0.00,0.000000,,2013-01-16 10:02:00,
2013-01-16 02:12:00,27.0,23.0,-100.00,North,8,7.0,12.0,85,0.00,,,0.00,0.000000,,2013-01-16 10:12:00,
2013-01-16 02:22:00,27.0,23.0,-100.00,North,8,7.0,12.0,85,0.00,,,0.00,0.000000,,2013-01-16 10:22:00,
2013-01-16 02:32:00,27.0,23.0,-100.00,North,8,7.0,12.0,85,0.00,,,0.00,0.000000,,2013-01-16 10:32:00,
2013-01-16 03:02:00,27.0,23.0,-100.00,North,1,5.0,13.0,84,0.00,,,0.00,0.000000,,2013-01-16 11:02:00,
2013-01-16 03:12:00,27.0,23.0,-100.00,North,1,5.0,13.0,84,0.00,,,0.00,0.000000,,2013-01-16 11:12:00,
2013-01-16 03:22:00,27.0,23.0,-100.00,North,1,5.0,13.0,84,0.00,,,0.00,0.000000,,2013-01-16 11:22:00,
2013-01-16 03:32:00,27.0,23.0,-100.00,North,1,5.0,13.0,84,0.00,,,0.00,0.000000,,2013-01-16 11:32:00,
2013-01-16 03:53:00,27.0,22.0,-100.00,North,10,6.0,9.0,82,0.00,,,0.00,0.000000,,2013-01-16 11:53:00,
2013-01-16 04:03:00,27.0,22.0,-100.00,North,10,6.0,9.0,82,0.00,,,0.00,0.000000,,2013-01-16 12:03:00,
2013-01-16 04:12:00,27.0,22.0,-100.00,North,10,6.0,9.0,82,0.00,,,0.00,0.000000,,2013-01-16 12:12:00,
2013-01-16 04:22:00,27.0,22.0,-100.00,North,10,6.0,9.0,82,0.00,,,0.00,0.000000,,2013-01-16 12:22:00,
2013-01-16 04:32:00,27.0,22.0,-100.00,North,10,6.0,9.0,82,0.00,,,0.00,0.000000,,2013-01-16 12:32:00,
2013-01-16 05:02:00,27.0,22.0,-100.00,North,2,7.0,10.0,81,0.00,,,0.00,0.000000,,2013-01-16 13:02:00,
2013-01-16 05:12:00,27.0,22.0,-100.00,North,2,7.0,10.0,81,0.00,,,0.00,0.000000,,2013-01-16 13:12:00,
2013-01-16 05:22:00,27.0,22.0,-100.00,North,2,7.0,10.0,81,0.00,,,0.00,0.000000,,2013-01-16 13:22:00,
2013-01-16 05:32:00,27.0,22.0,-100.00,North,2,7.0,10.0,81,0.00,,,0.00,0.000000,,2013-01-16 13:32:00,
2013-01-16 06:03:00,28.0,23.0,-100.00,North,349,4.0,8.0,82,0.00,,,0.00,0.000000,,2013-01-16 14:03:00,
2013-01-16 06:12:00,28.0,23.0,-100.00,North,349,4.0,8.0,82,0.00,,,0.00,0.000000,,2013-01-16 14:12:00,
2013-01-16 06:22:00,28.0,23.0,-100.00,North,349,4.0,8.0,82,0.00,,,0.00,0.000000,,2013-01-16 14:22:00,
2013-01-16 06:32:00,28.0,23.0,-100.00,North,349,4.0,8.0,82,0.00,,,0.00,0.000000,,2013-01-16 14:32:00,
2013-01-16 07:03:00,28.0,24.0,-100.00,North,5,6.0,9.0,83,0.00,,,0.00,0.000000,,2013-01-16 15:03:00,
2013-01-16 07:12:00,28.0,24.0,-100.00,North,5,6.0,9.0,83,0.00,,,0.00,0.000000,,2013-01-16 15:12:00,
2013-01-16 07:22:00,28.0,24.0,-100.00,North,5,6.0,9.0,83,0.00,,,0.00,0.000000,,2013-01-16 15:22:00,
2013-01-16 07:32:00,28.0,24.0,-100.00,North,5,6.0,9.0,83,0.00,,,0.00,0.000000,,2013-01-16 15:32:00,
2013-01-16 07:53:00,28.0,23.0,-100.00,North,357,5.0,8.0,82,0.00,,,-99.99,0.000000,,2013-01-16 15:53:00,
2013-01-16 08:03:00,28.0,23.0,-100.00,North,357,5.0,8.0,82,0.00,,,-99.99,0.000000,,2013-01-16 16:03:00,
2013-01-16 08:12:00,28.0,23.0,-100.00,North,357,5.0,8.0,82,0.00,,,-99.99,0.000000,,2013-01-16 16:12:00,
2013-01-16 08:22:00,28.0,23.0,-100.00,North,357,5.0,8.0,82,0.00,,,-99.99,0.000000,,2013-01-16 16:22:00,
2013-01-16 08:32:00,28.0,23.0,-100.00,North,357,5.0,8.0,82,0.00,,,-99.99,0.000000,,2013-01-16 16:32:00,
2013-01-16 09:02:00,28.0,23.0,-100.00,North,0,4.0,9.0,81,0.00,,,0.00,10.000000,,2013-01-16 17:02:00,
2013-01-16 09:12:00,28.0,23.0,-100.00,North,0,4.0,9.0,81,0.00,,,0.00,10.000000,,2013-01-16 17:12:00,
2013-01-16 09:22:00,28.0,23.0,-100.00,North,0,4.0,9.0,81,0.00,,,0.00,10.000000,,2013-01-16 17:22:00,
2013-01-16 09:33:00,28.0,23.0,-100.00,North,0,4.0,9.0,81,0.00,,,0.00,10.000000,,2013-01-16 17:33:00,
2013-01-16 10:02:00,28.0,23.0,-100.00,NNE,20,7.0,11.0,80,0.00,,,0.00,44.000000,,2013-01-16 18:02:00,
2013-01-16 10:12:00,28.0,23.0,-100.00,NNE,20,7.0,11.0,80,0.00,,,0.00,44.000000,,2013-01-16 18:12:00,
2013-01-16 10:22:00,28.0,23.0,-100.00,NNE,20,7.0,11.0,80,0.00,,,0.00,44.000000,,2013-01-16 18:22:00,
2013-01-16 10:33:00,28.0,23.0,-100.00,NNE,20,7.0,11.0,80,0.00,,,0.00,44.000000,,2013-01-16 18:33:00,
2013-01-16 10:53:00,29.0,23.0,-100.00,North,7,6.0,11.0,78,0.00,,,0.00,87.000000,,2013-01-16 18:53:00,
2013-01-16 11:02:00,29.0,23.0,-100.00,North,7,6.0,11.0,78,0.00,,,0.00,87.000000,,2013-01-16 19:02:00,
2013-01-16 11:12:00,29.0,23.0,-100.00,North,7,6.0,11.0,78,0.00,,,0.00,87.000000,,2013-01-16 19:12:00,
2013-01-16 11:22:00,29.0,23.0,-100.00,North,7,6.0,11.0,78,0.00,,,0.00,87.000000,,2013-01-16 19:22:00,
2013-01-16 11:32:00,29.0,23.0,-100.00,North,7,6.0,11.0,78,0.00,,,0.00,87.000000,,2013-01-16 19:32:00,
2013-01-16 12:03:00,30.0,23.0,-100.00,East,90,3.0,12.0,76,0.00,,,0.00,119.000000,,2013-01-16 20:03:00,
2013-01-16 12:12:00,30.0,23.0,-100.00,East,90,3.0,12.0,76,0.00,,,0.00,119.000000,,2013-01-16 20:12:00,
2013-01-16 12:23:00,30.0,23.0,-100.00,East,90,3.0,12.0,76,0.00,,,0.00,119.000000,,2013-01-16 20:23:00,
2013-01-16 12:32:00,30.0,23.0,-100.00,East,90,3.0,12.0,76,0.00,,,0.00,119.000000,,2013-01-16 20:32:00,
2013-01-16 13:02:00,31.0,24.0,-100.00,ENE,77,0.0,9.0,75,0.00,,,0.00,132.000000,,2013-01-16 21:02:00,
2013-01-16 13:12:00,31.0,24.0,-100.00,ENE,77,0.0,9.0,75,0.00,,,0.00,132.000000,,2013-01-16 21:12:00,
2013-01-16 13:22:00,31.0,24.0,-100.00,ENE,77,0.0,9.0,75,0.00,,,0.00,132.000000,,2013-01-16 21:22:00,
2013-01-16 13:32:00,31.0,24.0,-100.00,ENE,77,0.0,9.0,75,0.00,,,0.00,132.000000,,2013-01-16 21:32:00,
2013-01-16 13:53:00,31.0,24.0,-100.00,SSW,204,1.0,7.0,76,0.00,,,0.00,124.000000,,2013-01-16 21:53:00,
2013-01-16 14:02:00,31.0,24.0,-100.00,SSW,204,1.0,7.0,76,0.00,,,0.00,124.000000,,2013-01-16 22:02:00,
2013-01-16 14:12:00,31.0,24.0,-100.00,SSW,204,1.0,7.0,76,0.00,,,0.00,124.000000,,2013-01-16 22:12:00,
2013-01-16 14:22:00,31.0,24.0,-100.00,SSW,204,1.0,7.0,76,0.00,,,0.00,124.000000,,2013-01-16 22:22:00,
2013-01-16 14:32:00,31.0,24.0,-100.00,SSW,204,1.0,7.0,76,0.00,,,0.00,124.000000,,2013-01-16 22:32:00,
2013-01-16 15:02:00,31.0,25.0,-100.00,ENE,67,2.0,8.0,78,0.00,,,0.00,85.000000,,2013-01-16 23:02:00,
2013-01-16 15:12:00,31.0,25.0,-100.00,ENE,67,2.0,8.0,78,0.00,,,0.00,85.000000,,2013-01-16 23:12:00,
2013-01-16 15:22:00,31.0,25.0,-100.00,ENE,67,2.0,8.0,78,0.00,,,0.00,85.000000,,2013-01-16 23:22:00,
2013-01-16 15:32:00,31.0,25.0,-100.00,ENE,67,2.0,8.0,78,0.00,,,0.00,85.000000,,2013-01-16 23:32:00,
2013-01-16 15:53:00,30.0,24.0,-100.00,NNE,29,3.0,7.0,78,0.00,,,0.00,53.000000,,2013-01-16 23:53:00,
2013-01-16 16:02:00,30.0,24.0,-100.00,NNE,29,3.0,7.0,78,0.00,,,0.00,53.000000,,2013-01-17 00:02:00,
2013-01-16 16:12:00,30.0,24.0,-100.00,NNE,29,3.0,7.0,78,0.00,,,0.00,53.000000,,2013-01-17 00:12:00,
2013-01-16 16:22:00,30.0,24.0,-100.00,NNE,29,3.0,7.0,78,0.00,,,0.00,53.000000,,2013-01-17 00:22:00,
2013-01-16 16:32:00,30.0,24.0,-100.00,NNE,29,3.0,7.0,78,0.00,,,0.00,53.000000,,2013-01-17 00:32:00,
2013-01-16 17:02:00,30.0,25.0,-100.00,NNE,13,2.0,9.0,81,0.00,,,0.00,13.000000,,2013-01-17 01:02:00,
2013-01-16 17:12:00,30.0,25.0,-100.00,NNE,13,2.0,9.0,81,0.00,,,0.00,13.000000,,2013-01-17 01:12:00,
2013-01-16 17:22:00,30.0,25.0,-100.00,NNE,13,2.0,9.0,81,0.00,,,0.00,13.000000,,2013-01-17 01:22:00,
2013-01-16 17:32:00,30.0,25.0,-100.00,NNE,13,2.0,9.0,81,0.00,,,0.00,13.000000,,2013-01-17 01:32:00,
2013-01-16 18:02:00,29.0,24.0,-100.00,NE,40,7.0,12.0,81,0.00,,,0.00,0.000000,,2013-01-17 02:02:00,
2013-01-16 18:12:00,29.0,24.0,-100.00,NE,40,7.0,12.0,81,0.00,,,0.00,0.000000,,2013-01-17 02:12:00,
2013-01-16 18:22:00,29.0,24.0,-100.00,NE,40,7.0,12.0,81,0.00,,,0.00,0.000000,,2013-01-17 02:22:00,
2013-01-16 18:32:00,29.0,24.0,-100.00,NE,40,7.0,12.0,81,0.00,,,0.00,0.000000,,2013-01-17 02:32:00,
2013-01-16 19:02:00,29.0,24.0,-100.00,ENE,64,0.0,10.0,82,0.00,,,-99.99,0.000000,,2013-01-17 03:02:00,
2013-01-16 19:12:00,29.0,24.0,-100.00,ENE,64,0.0,10.0,82,0.00,,,-99.99,0.000000,,2013-01-17 03:12:00,
2013-01-16 19:22:00,29.0,24.0,-100.00,ENE,64,0.0,10.0,82,0.00,,,-99.99,0.000000,,2013-01-17 03:22:00,
2013-01-16 19:32:00,29.0,24.0,-100.00,ENE,64,0.0,10.0,82,0.00,,,-99.99,0.000000,,2013-01-17 03:32:00,
2013-01-16 20:02:00,28.0,25.0,-100.00,WSW,242,0.0,4.0,88,0.00,,,0.00,0.000000,,2013-01-17 04:02:00,
2013-01-16 20:12:00,28.0,25.0,-100.00,WSW,242,0.0,4.0,88,0.00,,,0.00,0.000000,,2013-01-17 04:12:00,
2013-01-16 20:22:00,28.0,25.0,-100.00,WSW,242,0.0,4.0,88,0.00,,,0.00,0.000000,,2013-01-17 04:22:00,
2013-01-16 20:32:00,28.0,25.0,-100.00,WSW,242,0.0,4.0,88,0.00,,,0.00,0.000000,,2013-01-17 04:32:00,
2013-01-16 21:04:00,26.0,23.0,-100.00,WNW,283,3.0,6.0,90,0.00,,,0.00,0.000000,,2013-01-17 05:04:00,
2013-01-16 21:12:00,26.0,23.0,-100.00,WNW,283,3.0,6.0,90,0.00,,,0.00,0.000000,,2013-01-17 05:12:00,
2013-01-16 21:22:00,26.0,23.0,-100.00,WNW,283,3.0,6.0,90,0.00,,,0.00,0.000000,,2013-01-17 05:22:00,
2013-01-16 21:32:00,26.0,23.0,-100.00,WNW,283,3.0,6.0,90,0.00,,,0.00,0.000000,,2013-01-17 05:32:00,
2013-01-16 21:53:00,26.0,23.0,-100.00,WNW,299,0.0,6.0,89,0.00,,,0.00,0.000000,,2013-01-17 05:53:00,
2013-01-16 22:02:00,26.0,23.0,-100.00,WNW,299,0.0,6.0,89,0.00,,,0.00,0.000000,,2013-01-17 06:02:00,
2013-01-16 22:12:00,26.0,23.0,-100.00,WNW,299,0.0,6.0,89,0.00,,,0.00,0.000000,,2013-01-17 06:12:00,
2013-01-16 22:22:00,26.0,23.0,-100.00,WNW,299,0.0,6.0,89,0.00,,,0.00,0.000000,,2013-01-17 06:22:00,
2013-01-16 22:32:00,26.0,23.0,-100.00,WNW,299,0.0,6.0,89,0.00,,,0.00,0.000000,,2013-01-17 06:32:00,
2013-01-16 23:02:00,24.0,22.0,-100.00,NNW,348,2.0,7.0,92,0.00,,,0.00,0.000000,,2013-01-17 07:02:00,
2013-01-16 23:12:00,24.0,22.0,-100.00,NNW,348,2.0,7.0,92,0.00,,,0.00,0.000000,,2013-01-17 07:12:00,
2013-01-16 23:22:00,24.0,22.0,-100.00,NNW,348,2.0,7.0,92,0.00,,,0.00,0.000000,,2013-01-17 07:22:00,
2013-01-16 23:32:00,24.0,22.0,-100.00,NNW,348,2.0,7.0,92,0.00,,,0.00,0.000000,,2013-01-17 07:32:00,
2013-01-16 23:52:00,25.0,23.0,-100.00,North,2,4.0,7.0,91,0.00,,,-99.99,0.000000,,2013-01-17 07:52:00,